createdAt,value
2023-05-13T00:00:47.888Z,7.30
2023-05-13T00:01:50.173Z,7.85
2023-05-13T00:02:52.309Z,7.20
2023-05-13T00:03:54.004Z,8.02
2023-05-13T00:04:55.746Z,7.97
2023-05-13T00:05:57.416Z,7.82
2023-05-13T00:06:59.024Z,8.32
2023-05-13T00:08:02.492Z,8.45
2023-05-13T00:09:04.193Z,7.72
2023-05-13T00:10:06.361Z,7.25
2023-05-13T00:11:08.215Z,7.72
2023-05-13T00:12:09.845Z,7.55
2023-05-13T00:13:11.473Z,8.50
2023-05-13T00:14:13.087Z,8.48
2023-05-13T00:15:14.664Z,7.72
2023-05-13T00:16:16.332Z,8.18
2023-05-13T00:17:18.052Z,7.82
2023-05-13T00:18:19.709Z,7.75
2023-05-13T00:19:21.450Z,7.40
2023-05-13T00:20:23.422Z,7.47
2023-05-13T00:21:25.286Z,7.38
2023-05-13T00:22:26.919Z,7.75
2023-05-13T00:23:28.504Z,7.80
2023-05-13T00:24:30.080Z,8.10
2023-05-13T00:25:31.674Z,7.65
2023-05-13T00:26:33.302Z,7.57
2023-05-13T00:27:35.250Z,7.40
2023-05-13T00:28:36.842Z,6.70
2023-05-13T00:29:38.402Z,7.88
2023-05-13T00:30:42.031Z,7.72
2023-05-13T00:31:43.650Z,8.30
2023-05-13T00:32:45.428Z,7.55
2023-05-13T00:33:47.112Z,7.55
2023-05-13T00:34:48.708Z,7.55
2023-05-13T00:35:50.267Z,7.45
2023-05-13T00:36:52.066Z,7.53
2023-05-13T00:37:53.715Z,7.70
2023-05-13T00:38:55.589Z,7.50
2023-05-13T00:39:57.175Z,7.55
2023-05-13T00:40:58.806Z,7.35
2023-05-13T00:42:00.477Z,7.22
2023-05-13T00:43:02.120Z,7.65
2023-05-13T00:44:03.950Z,7.13
2023-05-13T00:45:06.396Z,8.15
2023-05-13T00:46:08.106Z,7.38
2023-05-13T00:47:12.009Z,8.07
2023-05-13T00:48:13.686Z,6.57
2023-05-13T00:49:15.589Z,8.00
2023-05-13T00:50:17.267Z,7.25
2023-05-13T00:51:18.896Z,7.00
2023-05-13T00:52:20.528Z,7.30
2023-05-13T00:53:22.304Z,7.60
2023-05-13T00:54:23.890Z,8.10
2023-05-13T00:55:25.679Z,6.88
2023-05-13T00:56:27.368Z,7.25
2023-05-13T00:57:29.693Z,7.50
2023-05-13T00:58:31.349Z,7.53
2023-05-13T00:59:33.029Z,7.32
2023-05-13T01:00:39.419Z,7.28
2023-05-13T01:02:07.669Z,6.43
2023-05-13T01:03:16.818Z,7.70
2023-05-13T01:04:44.766Z,8.00
2023-05-13T01:06:10.895Z,6.82
2023-05-13T01:07:33.034Z,7.60
2023-05-13T01:09:01.369Z,7.57
2023-05-13T01:10:17.953Z,7.30
2023-05-13T01:11:24.189Z,6.53
2023-05-13T01:12:36.068Z,7.45
2023-05-13T01:13:43.152Z,7.85
2023-05-13T01:14:52.163Z,7.32
2023-05-13T01:16:15.437Z,7.13
2023-05-13T01:17:27.874Z,7.40
2023-05-13T01:18:44.496Z,7.60
2023-05-13T01:19:54.423Z,7.50
2023-05-13T01:20:56.516Z,8.18
2023-05-13T01:21:58.106Z,7.72
2023-05-13T01:22:59.709Z,7.65
2023-05-13T01:24:01.302Z,7.43
2023-05-13T01:25:02.979Z,7.60
2023-05-13T01:26:04.691Z,7.80
2023-05-13T01:27:07.177Z,7.55
2023-05-13T01:28:09.171Z,7.55
2023-05-13T01:29:10.802Z,7.95
2023-05-13T01:30:12.986Z,7.55
2023-05-13T01:31:15.375Z,7.60
2023-05-13T01:32:18.004Z,8.13
2023-05-13T01:33:20.036Z,7.75
2023-05-13T01:34:23.429Z,7.07
2023-05-13T01:35:26.668Z,7.75
2023-05-13T01:36:28.352Z,7.53
2023-05-13T01:37:30.475Z,7.55
2023-05-13T01:38:34.218Z,7.38
2023-05-13T01:39:38.272Z,7.35
2023-05-13T01:40:41.268Z,7.47
2023-05-13T01:41:43.033Z,7.47
2023-05-13T01:42:44.662Z,7.60
2023-05-13T01:43:46.220Z,7.63
2023-05-13T01:44:47.842Z,8.40
2023-05-13T01:45:49.558Z,7.40
2023-05-13T01:46:53.102Z,6.90
2023-05-13T01:47:54.805Z,7.68
2023-05-13T01:48:56.406Z,7.50
2023-05-13T01:49:58.000Z,7.78
2023-05-13T01:50:59.601Z,6.90
2023-05-13T01:52:01.189Z,7.53
2023-05-13T01:53:02.843Z,7.80
2023-05-13T01:54:05.057Z,7.30
2023-05-13T01:55:07.430Z,7.90
2023-05-13T01:56:10.784Z,7.75
2023-05-13T01:57:12.364Z,7.88
2023-05-13T01:58:14.023Z,7.53
2023-05-13T01:59:15.906Z,7.63
2023-05-13T02:00:17.816Z,7.75
2023-05-13T02:01:21.780Z,7.72
2023-05-13T02:02:24.137Z,7.30
2023-05-13T02:03:26.072Z,7.18
2023-05-13T02:04:27.808Z,6.80
2023-05-13T02:05:31.486Z,6.88
2023-05-13T02:06:33.242Z,6.72
2023-05-13T02:07:34.787Z,7.43
2023-05-13T02:08:36.367Z,7.45
2023-05-13T02:09:38.001Z,7.50
2023-05-13T02:10:39.690Z,7.30
2023-05-13T02:11:41.346Z,7.78
2023-05-13T02:12:42.976Z,6.82
2023-05-13T02:13:44.632Z,6.97
2023-05-13T02:14:46.186Z,7.32
2023-05-13T02:15:47.765Z,8.23
2023-05-13T02:16:49.571Z,7.43
2023-05-13T02:17:51.482Z,7.40
2023-05-13T02:18:53.272Z,7.50
2023-05-13T02:19:54.854Z,7.25
2023-05-13T02:20:57.424Z,6.55
2023-05-13T02:21:59.087Z,7.40
2023-05-13T02:23:00.857Z,7.70
2023-05-13T02:24:02.644Z,6.05
2023-05-13T02:25:05.027Z,7.22
2023-05-13T02:26:06.667Z,7.43
2023-05-13T02:27:08.398Z,7.60
2023-05-13T02:28:10.550Z,7.40
2023-05-13T02:29:12.231Z,8.00
2023-05-13T02:30:13.974Z,7.25
2023-05-13T02:31:15.637Z,7.38
2023-05-13T02:32:17.238Z,7.68
2023-05-13T02:33:18.836Z,7.43
2023-05-13T02:34:20.423Z,7.40
2023-05-13T02:35:22.460Z,6.85
2023-05-13T02:36:24.018Z,8.10
2023-05-13T02:37:25.620Z,7.30
2023-05-13T02:38:27.216Z,7.88
2023-05-13T02:39:28.849Z,7.20
2023-05-13T02:40:30.622Z,7.45
2023-05-13T02:41:32.302Z,7.55
2023-05-13T02:42:33.885Z,7.28
2023-05-13T02:43:35.498Z,7.93
2023-05-13T02:44:37.088Z,6.88
2023-05-13T02:45:41.598Z,7.00
2023-05-13T02:46:44.123Z,8.05
2023-05-13T02:47:45.932Z,7.22
2023-05-13T02:48:47.622Z,7.25
2023-05-13T02:49:49.201Z,7.07
2023-05-13T02:50:50.844Z,7.20
2023-05-13T02:51:52.471Z,7.75
2023-05-13T02:52:54.047Z,7.90
2023-05-13T02:53:55.634Z,8.02
2023-05-13T02:54:57.373Z,7.97
2023-05-13T02:55:59.333Z,8.10
2023-05-13T02:57:00.922Z,8.68
2023-05-13T02:58:02.583Z,8.45
2023-05-13T02:59:04.187Z,8.15
2023-05-13T03:00:06.667Z,7.93
2023-05-13T03:01:08.302Z,7.93
2023-05-13T03:02:09.931Z,8.68
2023-05-13T03:03:11.636Z,8.05
2023-05-13T03:04:13.251Z,8.48
2023-05-13T03:05:14.867Z,7.47
2023-05-13T03:06:16.445Z,7.65
2023-05-13T03:07:18.013Z,7.60
2023-05-13T03:08:19.570Z,7.80
2023-05-13T03:09:21.161Z,7.00
2023-05-13T03:10:22.930Z,7.55
2023-05-13T03:11:24.711Z,7.50
2023-05-13T03:12:26.456Z,7.97
2023-05-13T03:13:28.061Z,7.40
2023-05-13T03:14:29.691Z,7.35
2023-05-13T03:15:31.372Z,7.38
2023-05-13T03:16:33.034Z,7.75
2023-05-13T03:17:34.755Z,7.55
2023-05-13T03:18:36.417Z,7.72
2023-05-13T03:19:38.776Z,7.35
2023-05-13T03:20:40.450Z,6.80
2023-05-13T03:21:42.062Z,7.28
2023-05-13T03:22:43.768Z,8.20
2023-05-13T03:23:45.341Z,7.40
2023-05-13T03:24:46.943Z,7.30
2023-05-13T03:25:48.547Z,7.00
2023-05-13T03:26:50.683Z,6.85
2023-05-13T03:27:52.265Z,7.45
2023-05-13T03:28:53.871Z,7.72
2023-05-13T03:29:55.502Z,7.28
2023-05-13T03:30:57.120Z,6.80
2023-05-13T03:31:59.010Z,7.07
2023-05-13T03:33:00.919Z,6.45
2023-05-13T03:34:02.508Z,6.75
2023-05-13T03:35:04.345Z,7.38
2023-05-13T03:36:07.067Z,7.10
2023-05-13T03:37:09.817Z,7.07
2023-05-13T03:38:11.403Z,6.70
2023-05-13T03:39:13.003Z,7.30
2023-05-13T03:40:15.454Z,7.60
2023-05-13T03:41:17.599Z,7.30
2023-05-13T03:42:20.486Z,7.22
2023-05-13T03:43:22.072Z,6.57
2023-05-13T03:44:23.641Z,6.93
2023-05-13T03:45:25.686Z,6.50
2023-05-13T03:46:27.471Z,7.28
2023-05-13T03:47:29.180Z,6.72
2023-05-13T03:48:31.024Z,6.75
2023-05-13T03:49:32.607Z,7.18
2023-05-13T03:50:34.212Z,6.95
2023-05-13T03:51:35.825Z,7.28
2023-05-13T03:52:37.429Z,6.60
2023-05-13T03:53:38.995Z,7.18
2023-05-13T03:54:40.577Z,7.22
2023-05-13T03:55:42.204Z,6.63
2023-05-13T03:56:43.794Z,6.25
2023-05-13T03:57:49.070Z,7.00
2023-05-13T03:58:50.737Z,5.95
2023-05-13T03:59:52.286Z,6.35
2023-05-13T04:00:53.916Z,7.05
2023-05-13T04:01:55.641Z,6.22
2023-05-13T04:02:57.279Z,6.63
2023-05-13T04:03:58.853Z,6.40
2023-05-13T04:05:00.571Z,6.75
2023-05-13T04:06:02.242Z,6.88
2023-05-13T04:07:03.915Z,6.55
2023-05-13T04:08:05.821Z,6.78
2023-05-13T04:09:07.650Z,7.30
2023-05-13T04:10:11.696Z,6.32
2023-05-13T04:11:14.643Z,6.60
2023-05-13T04:12:18.101Z,6.07
2023-05-13T04:13:19.790Z,6.78
2023-05-13T04:14:21.477Z,6.90
2023-05-13T04:15:23.356Z,7.13
2023-05-13T04:16:25.621Z,7.60
2023-05-13T04:17:27.882Z,8.35
2023-05-13T04:18:30.367Z,7.65
2023-05-13T04:19:31.920Z,8.27
2023-05-13T04:20:33.467Z,7.10
2023-05-13T04:21:35.133Z,7.60
2023-05-13T04:22:36.738Z,7.57
2023-05-13T04:23:38.348Z,7.25
2023-05-13T04:24:39.873Z,7.50
2023-05-13T04:25:42.235Z,7.50
2023-05-13T04:26:43.759Z,7.43
2023-05-13T04:27:47.474Z,7.30
2023-05-13T04:28:49.070Z,7.40
2023-05-13T04:29:51.219Z,7.10
2023-05-13T04:30:52.848Z,7.50
2023-05-13T04:31:54.495Z,7.88
2023-05-13T04:32:56.677Z,7.35
2023-05-13T04:33:58.334Z,7.55
2023-05-13T04:34:59.864Z,7.15
2023-05-13T04:36:01.395Z,7.05
2023-05-13T04:37:02.930Z,6.80
2023-05-13T04:38:05.212Z,7.72
2023-05-13T04:39:06.754Z,8.02
2023-05-13T04:40:08.964Z,8.27
2023-05-13T04:41:10.506Z,7.70
2023-05-13T04:42:12.597Z,7.68
2023-05-13T04:43:14.551Z,7.90
2023-05-13T04:44:16.087Z,7.47
2023-05-13T04:45:17.698Z,7.95
2023-05-13T04:46:19.298Z,7.22
2023-05-13T04:47:20.960Z,8.15
2023-05-13T04:48:22.643Z,7.78
2023-05-13T04:49:24.313Z,7.22
2023-05-13T04:50:26.482Z,7.82
2023-05-13T04:51:29.181Z,7.45
2023-05-13T04:52:31.099Z,8.52
2023-05-13T04:53:32.744Z,7.80
2023-05-13T04:54:39.226Z,7.65
2023-05-13T04:55:40.888Z,6.47
2023-05-13T04:56:42.440Z,8.20
2023-05-13T04:57:44.083Z,7.65
2023-05-13T04:58:45.737Z,8.27
2023-05-13T04:59:47.262Z,8.48
2023-05-13T05:00:48.813Z,8.00
2023-05-13T05:01:50.486Z,7.80
2023-05-13T05:02:52.101Z,8.70
2023-05-13T05:03:53.771Z,7.40
2023-05-13T05:04:58.419Z,7.85
2023-05-13T05:05:59.961Z,7.70
2023-05-13T05:07:01.554Z,8.77
2023-05-13T05:08:03.123Z,7.88
2023-05-13T05:09:05.084Z,8.00
2023-05-13T05:10:08.236Z,9.00
2023-05-13T05:11:10.658Z,7.95
2023-05-13T05:12:12.249Z,7.45
2023-05-13T05:13:13.835Z,7.50
2023-05-13T05:14:15.484Z,7.47
2023-05-13T05:15:17.071Z,7.25
2023-05-13T05:16:18.637Z,7.97
2023-05-13T05:17:20.343Z,8.15
2023-05-13T05:18:21.919Z,7.97
2023-05-13T05:19:24.233Z,8.50
2023-05-13T05:20:25.997Z,7.38
2023-05-13T05:21:27.614Z,7.32
2023-05-13T05:22:29.237Z,7.50
2023-05-13T05:23:30.796Z,8.20
2023-05-13T05:24:32.466Z,8.10
2023-05-13T05:25:34.143Z,7.70
2023-05-13T05:26:35.740Z,7.90
2023-05-13T05:27:37.409Z,8.40
2023-05-13T05:28:40.118Z,7.95
2023-05-13T05:29:42.108Z,8.38
2023-05-13T05:30:43.868Z,8.10
2023-05-13T05:31:45.610Z,7.88
2023-05-13T05:32:47.433Z,7.82
2023-05-13T05:33:49.081Z,7.90
2023-05-13T05:34:50.664Z,8.05
2023-05-13T05:35:52.238Z,8.35
2023-05-13T05:36:54.928Z,8.45
2023-05-13T05:37:56.962Z,7.95
2023-05-13T05:38:58.533Z,7.60
2023-05-13T05:40:00.255Z,7.25
2023-05-13T05:41:01.839Z,8.13
2023-05-13T05:42:03.545Z,8.15
2023-05-13T05:43:05.092Z,7.93
2023-05-13T05:44:06.684Z,7.05
2023-05-13T05:45:08.655Z,7.88
2023-05-13T05:46:10.285Z,9.00
2023-05-13T05:47:11.908Z,7.55
2023-05-13T05:48:13.445Z,7.63
2023-05-13T05:49:14.978Z,7.60
2023-05-13T05:50:16.568Z,7.75
2023-05-13T05:51:18.148Z,7.90
2023-05-13T05:52:19.691Z,7.75
2023-05-13T05:53:21.279Z,7.72
2023-05-13T05:54:22.814Z,7.80
2023-05-13T05:55:24.496Z,8.63
2023-05-13T05:56:26.108Z,8.00
2023-05-13T05:57:27.932Z,7.57
2023-05-13T05:58:29.831Z,7.10
2023-05-13T05:59:31.404Z,8.38
2023-05-13T06:00:33.380Z,7.05
2023-05-13T06:01:36.706Z,6.45
2023-05-13T06:02:38.366Z,7.30
2023-05-13T06:03:40.043Z,7.40
2023-05-13T06:04:41.846Z,7.70
2023-05-13T06:05:43.651Z,7.25
2023-05-13T06:06:45.250Z,8.10
2023-05-13T06:07:46.831Z,7.47
2023-05-13T06:08:48.398Z,7.97
2023-05-13T06:09:49.935Z,7.63
2023-05-13T06:10:51.518Z,7.80
2023-05-13T06:11:53.065Z,7.25
2023-05-13T06:12:54.780Z,7.43
2023-05-13T06:13:57.470Z,7.50
2023-05-13T06:14:59.590Z,7.45
2023-05-13T06:16:01.196Z,7.30
2023-05-13T06:17:02.836Z,7.25
2023-05-13T06:18:05.625Z,7.57
2023-05-13T06:19:07.316Z,7.18
2023-05-13T06:20:09.251Z,7.35
2023-05-13T06:21:11.005Z,7.90
2023-05-13T06:22:12.570Z,8.43
2023-05-13T06:23:14.907Z,7.88
2023-05-13T06:24:16.492Z,7.85
2023-05-13T06:25:18.050Z,8.20
2023-05-13T06:26:19.687Z,7.53
2023-05-13T06:27:21.215Z,7.30
2023-05-13T06:28:22.788Z,7.57
2023-05-13T06:29:24.500Z,6.90
2023-05-13T06:30:26.174Z,7.40
2023-05-13T06:31:27.854Z,6.60
2023-05-13T06:32:29.436Z,6.32
2023-05-13T06:33:31.213Z,7.30
2023-05-13T06:34:32.828Z,7.38
2023-05-13T06:35:34.359Z,6.63
2023-05-13T06:36:35.983Z,6.60
2023-05-13T06:37:37.548Z,7.70
2023-05-13T06:38:39.278Z,6.60
2023-05-13T06:39:41.136Z,6.40
2023-05-13T06:40:42.731Z,6.10
2023-05-13T06:41:44.325Z,6.83
2023-05-13T06:42:46.061Z,6.27
2023-05-13T06:43:48.782Z,6.73
2023-05-13T06:44:50.404Z,6.23
2023-05-13T06:45:51.942Z,6.37
2023-05-13T06:46:53.575Z,6.10
2023-05-13T06:47:55.354Z,5.80
2023-05-13T06:48:58.367Z,5.63
2023-05-13T06:49:59.972Z,5.53
2023-05-13T06:51:01.515Z,5.30
2023-05-13T06:52:03.198Z,6.50
2023-05-13T06:53:04.766Z,5.90
2023-05-13T06:54:06.417Z,5.37
2023-05-13T06:55:08.716Z,5.53
2023-05-13T06:56:10.587Z,5.70
2023-05-13T06:57:12.152Z,6.00
2023-05-13T06:58:13.725Z,5.37
2023-05-13T06:59:15.386Z,6.17
2023-05-13T07:00:17.688Z,5.90
2023-05-13T07:01:19.388Z,6.37
2023-05-13T07:02:21.020Z,5.53
2023-05-13T07:03:22.919Z,5.97
2023-05-13T07:04:24.599Z,6.47
2023-05-13T07:05:26.952Z,6.43
2023-05-13T07:06:28.493Z,6.40
2023-05-13T07:07:30.136Z,6.03
2023-05-13T07:08:31.708Z,5.80
2023-05-13T07:09:34.436Z,6.30
2023-05-13T07:10:36.892Z,6.23
2023-05-13T07:11:38.853Z,5.30
2023-05-13T07:12:40.457Z,5.67
2023-05-13T07:13:42.048Z,6.03
2023-05-13T07:14:45.170Z,5.73
2023-05-13T07:15:47.261Z,5.87
2023-05-13T07:16:48.864Z,6.00
2023-05-13T07:17:50.691Z,6.60
2023-05-13T07:18:54.135Z,5.43
2023-05-13T07:19:56.730Z,5.60
2023-05-13T07:20:58.378Z,6.30
2023-05-13T07:21:59.969Z,7.17
2023-05-13T07:23:01.544Z,6.07
2023-05-13T07:24:05.133Z,6.60
2023-05-13T07:25:07.082Z,6.37
2023-05-13T07:26:08.624Z,5.80
2023-05-13T07:27:10.146Z,6.03
2023-05-13T07:28:11.752Z,6.27
2023-05-13T07:29:13.360Z,6.07
2023-05-13T07:30:15.051Z,5.73
2023-05-13T07:31:16.719Z,5.83
2023-05-13T07:32:18.569Z,6.20
2023-05-13T07:33:20.313Z,6.47
2023-05-13T07:34:21.875Z,6.00
2023-05-13T07:35:23.678Z,6.63
2023-05-13T07:36:25.482Z,6.00
2023-05-13T07:37:27.026Z,6.17
2023-05-13T07:38:28.617Z,6.20
2023-05-13T07:39:30.354Z,6.27
2023-05-13T07:40:32.024Z,5.37
2023-05-13T07:41:33.597Z,6.23
2023-05-13T07:42:35.191Z,5.90
2023-05-13T07:43:37.431Z,5.93
2023-05-13T07:44:40.321Z,5.10
2023-05-13T07:45:42.217Z,6.00
2023-05-13T07:46:44.406Z,6.00
2023-05-13T07:47:45.976Z,6.10
2023-05-13T07:48:48.268Z,5.70
2023-05-13T07:49:50.467Z,6.20
2023-05-13T07:50:52.385Z,6.40
2023-05-13T07:51:53.964Z,6.30
2023-05-13T07:52:55.604Z,5.90
2023-05-13T07:53:57.197Z,5.40
2023-05-13T07:54:58.763Z,6.23
2023-05-13T07:56:00.525Z,6.60
2023-05-13T07:57:02.684Z,5.83
2023-05-13T07:58:04.331Z,5.87
2023-05-13T07:59:05.898Z,5.67
2023-05-13T08:00:08.169Z,6.50
2023-05-13T08:01:09.725Z,5.93
2023-05-13T08:02:12.405Z,5.73
2023-05-13T08:03:14.210Z,6.03
2023-05-13T08:04:16.128Z,6.53
2023-05-13T08:05:17.859Z,6.47
2023-05-13T08:06:19.540Z,6.63
2023-05-13T08:07:21.069Z,6.47
2023-05-13T08:08:22.663Z,7.00
2023-05-13T08:09:24.487Z,6.90
2023-05-13T08:10:26.030Z,7.10
2023-05-13T08:11:28.452Z,6.83
2023-05-13T08:12:30.074Z,6.20
2023-05-13T08:13:31.709Z,7.10
2023-05-13T08:14:33.342Z,7.10
2023-05-13T08:15:35.050Z,6.10
2023-05-13T08:16:37.124Z,6.33
2023-05-13T08:17:38.744Z,6.77
2023-05-13T08:18:40.429Z,6.60
2023-05-13T08:19:42.010Z,6.60
2023-05-13T08:20:43.701Z,6.63
2023-05-13T08:21:45.269Z,6.23
2023-05-13T08:22:47.671Z,5.77
2023-05-13T08:23:51.941Z,5.80
2023-05-13T08:24:53.982Z,6.70
2023-05-13T08:25:55.519Z,6.47
2023-05-13T08:26:57.102Z,6.20
2023-05-13T08:27:58.669Z,6.10
2023-05-13T08:29:00.648Z,6.57
2023-05-13T08:30:02.358Z,6.47
2023-05-13T08:31:04.154Z,6.30
2023-05-13T08:32:06.136Z,5.60
2023-05-13T08:33:08.354Z,6.00
2023-05-13T08:34:10.148Z,4.83
2023-05-13T08:35:11.766Z,5.63
2023-05-13T08:36:14.311Z,6.43
2023-05-13T08:37:15.974Z,5.97
2023-05-13T08:38:17.589Z,6.10
2023-05-13T08:39:19.176Z,6.20
2023-05-13T08:40:23.376Z,5.53
2023-05-13T08:41:24.956Z,6.50
2023-05-13T08:42:32.208Z,6.50
2023-05-13T08:43:34.378Z,6.17
2023-05-13T08:44:40.030Z,6.50
2023-05-13T08:45:45.461Z,6.10
2023-05-13T08:46:53.725Z,6.30
2023-05-13T08:48:01.206Z,6.13
2023-05-13T08:49:03.011Z,6.80
2023-05-13T08:50:06.019Z,6.40
2023-05-13T08:51:09.026Z,6.07
2023-05-13T08:52:10.640Z,6.77
2023-05-13T08:53:13.101Z,6.37
2023-05-13T08:54:16.883Z,5.83
2023-05-13T08:55:19.303Z,5.80
2023-05-13T08:56:24.246Z,6.20
2023-05-13T08:57:26.153Z,6.53
2023-05-13T08:58:28.027Z,6.83
2023-05-13T08:59:29.642Z,5.93
2023-05-13T09:00:31.685Z,5.80
2023-05-13T09:01:33.515Z,6.07
2023-05-13T09:02:35.215Z,6.03
2023-05-13T09:03:46.545Z,6.70
2023-05-13T09:04:53.470Z,7.10
2023-05-13T09:05:55.139Z,6.77
2023-05-13T09:06:57.136Z,6.20
2023-05-13T09:07:58.801Z,7.13
2023-05-13T09:09:00.847Z,6.40
2023-05-13T09:10:03.846Z,7.13
2023-05-13T09:11:05.834Z,6.00
2023-05-13T09:12:08.057Z,6.80
2023-05-13T09:13:12.314Z,5.83
2023-05-13T09:14:14.278Z,6.47
2023-05-13T09:15:18.907Z,6.37
2023-05-13T09:16:23.460Z,5.90
2023-05-13T09:17:25.179Z,5.40
2023-05-13T09:18:32.002Z,6.10
2023-05-13T09:19:35.491Z,5.97
2023-05-13T09:20:37.379Z,5.87
2023-05-13T09:21:39.489Z,6.00
2023-05-13T09:22:47.367Z,6.70
2023-05-13T09:23:48.949Z,6.03
2023-05-13T09:24:54.559Z,6.47
2023-05-13T09:25:56.169Z,6.67
2023-05-13T09:26:57.741Z,5.43
2023-05-13T09:28:04.191Z,6.70
2023-05-13T09:29:16.304Z,6.27
2023-05-13T09:30:19.748Z,5.77
2023-05-13T09:31:33.626Z,6.47
2023-05-13T09:32:35.359Z,6.17
2023-05-13T09:33:37.175Z,6.10
2023-05-13T09:34:39.509Z,6.27
2023-05-13T09:35:49.866Z,5.40
2023-05-13T09:37:03.863Z,6.47
2023-05-13T09:38:16.113Z,5.63
2023-05-13T09:39:17.769Z,5.13
2023-05-13T09:40:19.566Z,5.87
2023-05-13T09:41:21.404Z,5.90
2023-05-13T09:42:23.017Z,5.97
2023-05-13T09:43:31.713Z,5.67
2023-05-13T09:44:34.037Z,6.27
2023-05-13T09:45:36.341Z,6.00
2023-05-13T09:46:37.983Z,6.70
2023-05-13T09:47:40.508Z,6.27
2023-05-13T09:48:43.604Z,5.17
2023-05-13T09:49:47.080Z,5.70
2023-05-13T09:50:49.908Z,5.73
2023-05-13T09:51:51.553Z,5.20
2023-05-13T09:52:53.208Z,5.90
2023-05-13T09:53:55.268Z,5.97
2023-05-13T09:55:01.069Z,6.10
2023-05-13T09:56:02.756Z,5.50
2023-05-13T09:57:05.594Z,5.70
2023-05-13T09:58:12.161Z,5.50
2023-05-13T09:59:15.983Z,6.20
2023-05-13T10:00:29.240Z,6.17
2023-05-13T10:01:36.492Z,6.60
2023-05-13T10:02:39.073Z,6.27
2023-05-13T10:03:40.822Z,6.50
2023-05-13T10:04:43.310Z,5.70
2023-05-13T10:05:45.359Z,6.17
2023-05-13T10:06:48.902Z,5.60
2023-05-13T10:07:52.232Z,5.90
2023-05-13T10:08:56.563Z,6.40
2023-05-13T10:10:02.073Z,6.77
2023-05-13T10:11:04.836Z,5.60
2023-05-13T10:12:08.840Z,6.03
2023-05-13T10:13:13.268Z,6.40
2023-05-13T10:14:15.474Z,6.90
2023-05-13T10:15:17.427Z,6.33
2023-05-13T10:16:19.294Z,5.80
2023-05-13T10:17:25.942Z,5.63
2023-05-13T10:18:29.015Z,6.13
2023-05-13T10:19:31.113Z,5.90
2023-05-13T10:20:33.657Z,5.63
2023-05-13T10:21:36.892Z,5.13
2023-05-13T10:22:39.991Z,5.20
2023-05-13T10:23:42.002Z,4.83
2023-05-13T10:24:44.017Z,5.00
2023-05-13T10:25:47.574Z,5.00
2023-05-13T10:26:52.573Z,5.47
2023-05-13T10:27:57.725Z,4.70
2023-05-13T10:28:59.930Z,4.53
2023-05-13T10:30:05.676Z,4.73
2023-05-13T10:31:07.232Z,4.60
2023-05-13T10:32:10.448Z,4.90
2023-05-13T10:33:12.672Z,4.83
2023-05-13T10:34:14.372Z,5.07
2023-05-13T10:35:18.511Z,5.20
2023-05-13T10:36:22.933Z,5.03
2023-05-13T10:37:41.660Z,4.73
2023-05-13T10:38:52.541Z,4.47
2023-05-13T10:40:12.028Z,4.00
2023-05-13T10:41:49.603Z,4.17
2023-05-13T10:42:58.638Z,4.20
2023-05-13T10:44:00.465Z,3.70
2023-05-13T10:45:02.742Z,3.63
2023-05-13T10:46:06.608Z,3.80
2023-05-13T10:47:09.942Z,4.50
2023-05-13T10:48:13.892Z,4.20
2023-05-13T10:49:18.480Z,3.60
2023-05-13T10:50:25.083Z,3.70
2023-05-13T10:51:27.126Z,4.53
2023-05-13T10:52:43.119Z,4.00
2023-05-13T10:53:49.932Z,3.67
2023-05-13T10:55:02.257Z,3.70
2023-05-13T10:56:07.946Z,4.00
2023-05-13T10:57:10.367Z,3.97
2023-05-13T10:58:15.517Z,3.70
2023-05-13T10:59:18.214Z,3.40
2023-05-13T11:00:20.535Z,3.90
2023-05-13T11:01:35.707Z,3.47
2023-05-13T11:02:37.561Z,4.13
2023-05-13T11:03:40.801Z,4.10
2023-05-13T11:04:59.762Z,3.80
2023-05-13T11:06:23.968Z,3.93
2023-05-13T11:07:29.191Z,4.00
2023-05-13T11:08:41.977Z,4.50
2023-05-13T11:09:49.800Z,4.20
2023-05-13T11:10:55.235Z,4.50
2023-05-13T11:11:59.544Z,3.50
2023-05-13T11:13:16.200Z,4.20
2023-05-13T11:14:23.065Z,4.47
2023-05-13T11:15:24.641Z,4.20
2023-05-13T11:16:26.339Z,4.10
2023-05-13T11:17:31.097Z,4.60
2023-05-13T11:18:34.927Z,4.27
2023-05-13T11:19:38.624Z,4.63
2023-05-13T11:20:51.562Z,4.50
2023-05-13T11:21:57.150Z,3.73
2023-05-13T11:22:58.804Z,4.10
2023-05-13T11:24:05.505Z,3.73
2023-05-13T11:25:09.644Z,4.57
2023-05-13T11:26:18.974Z,3.67
2023-05-13T11:27:21.296Z,3.60
2023-05-13T11:28:53.779Z,4.23
2023-05-13T11:29:56.247Z,4.20
2023-05-13T11:31:17.215Z,4.20
2023-05-13T11:32:56.435Z,3.97
2023-05-13T11:34:14.075Z,3.63
2023-05-13T11:35:23.896Z,3.70
2023-05-13T11:36:30.750Z,3.83
2023-05-13T11:37:32.880Z,3.67
2023-05-13T11:38:34.623Z,4.20
2023-05-13T11:39:39.627Z,3.43
2023-05-13T11:40:41.396Z,3.73
2023-05-13T11:41:45.421Z,3.67
2023-05-13T11:42:47.808Z,3.37
2023-05-13T11:43:50.430Z,3.33
2023-05-13T11:44:53.110Z,3.53
2023-05-13T11:45:55.545Z,3.87
2023-05-13T11:46:59.099Z,3.10
2023-05-13T11:48:22.030Z,3.50
2023-05-13T11:49:43.648Z,3.20
2023-05-13T11:50:45.316Z,3.60
2023-05-13T11:51:47.107Z,3.03
2023-05-13T11:52:57.109Z,3.53
2023-05-13T11:54:04.364Z,3.40
2023-05-13T11:55:07.137Z,3.70
2023-05-13T11:56:10.825Z,3.63
2023-05-13T11:57:27.314Z,3.70
2023-05-13T11:58:28.923Z,3.60
2023-05-13T11:59:38.570Z,3.60
2023-05-13T12:00:47.012Z,3.80
2023-05-13T12:02:02.005Z,3.47
2023-05-13T12:03:11.654Z,3.40
2023-05-13T12:04:13.586Z,4.33
2023-05-13T12:05:15.205Z,3.87
2023-05-13T12:06:18.299Z,4.20
2023-05-13T12:07:26.627Z,3.40
2023-05-13T12:08:28.211Z,4.43
2023-05-13T12:09:29.809Z,3.40
2023-05-13T12:10:31.368Z,3.60
2023-05-13T12:11:33.729Z,3.40
2023-05-13T12:12:39.167Z,4.00
2023-05-13T12:13:43.453Z,4.00
2023-05-13T12:14:46.695Z,3.93
2023-05-13T12:15:49.687Z,3.50
2023-05-13T12:16:51.834Z,3.93
2023-05-13T12:17:53.598Z,4.07
2023-05-13T12:19:00.342Z,3.53
2023-05-13T12:20:06.996Z,4.00
2023-05-13T12:21:17.130Z,3.70
2023-05-13T12:22:22.157Z,3.57
2023-05-13T12:23:23.776Z,3.87
2023-05-13T12:24:25.363Z,3.60
2023-05-13T12:25:33.302Z,3.60
2023-05-13T12:26:34.862Z,4.27
2023-05-13T12:27:36.509Z,3.47
2023-05-13T12:28:38.137Z,3.27
2023-05-13T12:29:43.288Z,3.97
2023-05-13T12:31:01.412Z,3.80
2023-05-13T12:32:05.745Z,3.70
2023-05-13T12:33:18.695Z,3.73
2023-05-13T12:34:39.010Z,3.73
2023-05-13T12:35:40.790Z,3.07
2023-05-13T12:36:42.687Z,3.47
2023-05-13T12:37:44.387Z,3.63
2023-05-13T12:38:58.173Z,3.27
2023-05-13T12:40:14.147Z,3.60
2023-05-13T12:41:17.631Z,3.93
2023-05-13T12:42:19.300Z,4.33
2023-05-13T12:43:20.944Z,3.43
2023-05-13T12:44:23.055Z,3.37
2023-05-13T12:45:28.464Z,3.50
2023-05-13T12:46:30.273Z,3.47
2023-05-13T12:47:48.888Z,3.97
2023-05-13T12:48:56.623Z,3.50
2023-05-13T12:49:59.089Z,3.97
2023-05-13T12:51:02.081Z,3.37
2023-05-13T12:52:04.849Z,5.20
2023-05-13T12:53:06.504Z,3.60
2023-05-13T12:54:08.088Z,3.40
2023-05-13T12:55:10.180Z,3.57
2023-05-13T12:56:11.819Z,3.80
2023-05-13T12:57:15.423Z,3.60
2023-05-13T12:58:17.048Z,3.80
2023-05-13T12:59:19.110Z,3.63
2023-05-13T13:00:20.958Z,3.10
2023-05-13T13:01:22.993Z,3.60
2023-05-13T13:02:24.753Z,3.33
2023-05-13T13:03:26.589Z,3.13
2023-05-13T13:04:28.379Z,4.03
2023-05-13T13:05:29.997Z,3.47
2023-05-13T13:06:32.364Z,3.53
2023-05-13T13:07:33.981Z,3.40
2023-05-13T13:08:36.128Z,3.03
2023-05-13T13:09:37.782Z,3.73
2023-05-13T13:10:39.424Z,3.80
2023-05-13T13:11:40.995Z,3.70
2023-05-13T13:12:42.986Z,3.60
2023-05-13T13:13:45.505Z,3.90
2023-05-13T13:14:47.951Z,3.50
2023-05-13T13:15:49.573Z,4.00
2023-05-13T13:16:51.161Z,3.47
2023-05-13T13:17:52.823Z,3.50
2023-05-13T13:18:58.351Z,4.20
2023-05-13T13:20:00.647Z,3.60
2023-05-13T13:21:02.598Z,3.47
2023-05-13T13:22:04.303Z,4.00
2023-05-13T13:23:06.002Z,3.20
2023-05-13T13:24:07.706Z,3.23
2023-05-13T13:25:09.602Z,3.80
2023-05-13T13:26:12.178Z,4.27
2023-05-13T13:27:13.790Z,3.57
2023-05-13T13:28:15.826Z,3.80
2023-05-13T13:29:17.522Z,3.33
2023-05-13T13:30:19.113Z,3.70
2023-05-13T13:31:20.811Z,3.60
2023-05-13T13:32:22.484Z,4.30
2023-05-13T13:33:24.103Z,4.10
2023-05-13T13:34:25.710Z,4.40
2023-05-13T13:35:27.354Z,4.63
2023-05-13T13:36:28.939Z,4.00
2023-05-13T13:37:30.655Z,4.50
2023-05-13T13:38:32.281Z,4.20
2023-05-13T13:39:34.797Z,3.47
2023-05-13T13:40:36.720Z,3.77
2023-05-13T13:41:38.340Z,4.80
2023-05-13T13:42:44.756Z,5.20
2023-05-13T13:43:46.783Z,3.50
2023-05-13T13:44:48.660Z,4.70
2023-05-13T13:45:50.317Z,4.20
2023-05-13T13:46:52.024Z,3.67
2023-05-13T13:47:53.659Z,3.93
2023-05-13T13:48:55.418Z,4.30
2023-05-13T13:49:57.059Z,3.77
2023-05-13T13:50:59.497Z,4.70
2023-05-13T13:52:01.094Z,3.90
2023-05-13T13:53:02.659Z,2.93
2023-05-13T13:54:07.969Z,4.70
2023-05-13T13:55:11.575Z,3.70
2023-05-13T13:56:13.236Z,4.60
2023-05-13T13:57:16.605Z,4.03
2023-05-13T13:58:18.265Z,3.20
2023-05-13T13:59:19.905Z,2.87
2023-05-13T14:00:21.689Z,3.03
2023-05-13T14:01:23.518Z,2.80
2023-05-13T14:02:25.454Z,3.63